sensor_id;sensor_type;location;lat;lon;timestamp;pressure;altitude;pressure_sealevel;temperature;humidity
57847;BME280;43675;50.030;21.952;2023-07-13T00:01:32;98383.95;;;18.07;81.72
57847;BME280;43675;50.030;21.952;2023-07-13T00:03:59;98383.38;;;18.08;81.66
57847;BME280;43675;50.030;21.952;2023-07-13T00:06:25;98375.59;;;18.08;81.84
57847;BME280;43675;50.030;21.952;2023-07-13T00:08:52;98369.79;;;18.08;81.91
57847;BME280;43675;50.030;21.952;2023-07-13T00:11:18;98371.84;;;18.06;81.88
57847;BME280;43675;50.030;21.952;2023-07-13T00:13:45;98368.79;;;18.05;81.99
57847;BME280;43675;50.030;21.952;2023-07-13T00:16:13;98367.39;;;18.04;82.03
57847;BME280;43675;50.030;21.952;2023-07-13T00:18:40;98372.27;;;18.03;82.12
57847;BME280;43675;50.030;21.952;2023-07-13T00:21:07;98374.45;;;18.03;82.21
57847;BME280;43675;50.030;21.952;2023-07-13T00:23:39;98372.98;;;18.02;82.31
57847;BME280;43675;50.030;21.952;2023-07-13T00:26:07;98362.88;;;18.02;82.31
57847;BME280;43675;50.030;21.952;2023-07-13T00:28:34;98346.91;;;18.03;82.32
57847;BME280;43675;50.030;21.952;2023-07-13T00:31:01;98344.30;;;18.03;82.26
57847;BME280;43675;50.030;21.952;2023-07-13T00:33:29;98349.19;;;17.99;82.39
57847;BME280;43675;50.030;21.952;2023-07-13T00:35:56;98350.98;;;17.96;82.46
57847;BME280;43675;50.030;21.952;2023-07-13T00:38:23;98342.08;;;17.93;82.57
57847;BME280;43675;50.030;21.952;2023-07-13T00:40:50;98332.84;;;17.91;82.61
57847;BME280;43675;50.030;21.952;2023-07-13T00:43:19;98336.09;;;17.89;82.81
57847;BME280;43675;50.030;21.952;2023-07-13T00:48:15;98333.21;;;17.88;82.94
57847;BME280;43675;50.030;21.952;2023-07-13T00:50:44;98335.27;;;17.89;83.13
57847;BME280;43675;50.030;21.952;2023-07-13T00:53:13;98331.27;;;17.91;83.08
57847;BME280;43675;50.030;21.952;2023-07-13T00:55:40;98326.42;;;17.94;83.26
57847;BME280;43675;50.030;21.952;2023-07-13T00:58:06;98322.89;;;17.96;83.19
57847;BME280;43675;50.030;21.952;2023-07-13T01:00:35;98321.82;;;18.01;83.24
57847;BME280;43675;50.030;21.952;2023-07-13T01:03:03;98320.30;;;18.04;83.26
57847;BME280;43675;50.030;21.952;2023-07-13T01:05:32;98319.92;;;18.07;83.20
57847;BME280;43675;50.030;21.952;2023-07-13T01:08:01;98320.80;;;18.08;83.11
57847;BME280;43675;50.030;21.952;2023-07-13T01:10:29;98316.23;;;18.09;83.04
57847;BME280;43675;50.030;21.952;2023-07-13T01:12:56;98314.66;;;18.07;83.07
57847;BME280;43675;50.030;21.952;2023-07-13T01:15:52;98307.71;;;18.06;83.06
57847;BME280;43675;50.030;21.952;2023-07-13T01:18:25;98304.92;;;18.04;83.03
57847;BME280;43675;50.030;21.952;2023-07-13T01:20:57;98303.96;;;18.03;83.09
57847;BME280;43675;50.030;21.952;2023-07-13T01:23:26;98310.90;;;18.02;83.06
57847;BME280;43675;50.030;21.952;2023-07-13T01:25:53;98319.92;;;18.02;83.15
57847;BME280;43675;50.030;21.952;2023-07-13T01:28:21;98326.05;;;18.03;83.17
57847;BME280;43675;50.030;21.952;2023-07-13T01:30:48;98332.70;;;18.04;83.32
57847;BME280;43675;50.030;21.952;2023-07-13T01:33:16;98336.55;;;18.06;83.33
57847;BME280;43675;50.030;21.952;2023-07-13T01:35:45;98338.13;;;18.11;83.41
57847;BME280;43675;50.030;21.952;2023-07-13T01:38:15;98337.30;;;18.17;83.40
57847;BME280;43675;50.030;21.952;2023-07-13T01:40:42;98336.27;;;18.24;83.25
57847;BME280;43675;50.030;21.952;2023-07-13T01:43:09;98338.45;;;18.29;83.17
57847;BME280;43675;50.030;21.952;2023-07-13T01:45:36;98338.02;;;18.33;83.22
57847;BME280;43675;50.030;21.952;2023-07-13T01:48:03;98344.41;;;18.39;83.24
57847;BME280;43675;50.030;21.952;2023-07-13T01:50:29;98358.65;;;18.46;83.16
57847;BME280;43675;50.030;21.952;2023-07-13T01:52:56;98362.25;;;18.51;83.08
57847;BME280;43675;50.030;21.952;2023-07-13T01:55:22;98368.52;;;18.56;82.96
57847;BME280;43675;50.030;21.952;2023-07-13T01:57:49;98364.70;;;18.64;82.84
57847;BME280;43675;50.030;21.952;2023-07-13T02:00:16;98364.05;;;18.70;82.62
57847;BME280;43675;50.030;21.952;2023-07-13T02:02:43;98358.59;;;18.76;82.53
57847;BME280;43675;50.030;21.952;2023-07-13T02:05:11;98356.08;;;18.81;82.31
57847;BME280;43675;50.030;21.952;2023-07-13T02:07:38;98359.50;;;18.84;82.07
57847;BME280;43675;50.030;21.952;2023-07-13T02:10:07;98355.96;;;18.86;82.08
57847;BME280;43675;50.030;21.952;2023-07-13T02:12:34;98359.00;;;18.90;82.08
57847;BME280;43675;50.030;21.952;2023-07-13T02:15:01;98365.73;;;18.92;81.81
57847;BME280;43675;50.030;21.952;2023-07-13T02:17:28;98369.48;;;18.92;81.91
57847;BME280;43675;50.030;21.952;2023-07-13T02:19:55;98372.32;;;18.94;81.86
57847;BME280;43675;50.030;21.952;2023-07-13T02:22:22;98371.65;;;18.95;81.81
57847;BME280;43675;50.030;21.952;2023-07-13T02:24:49;98371.50;;;18.97;81.88
57847;BME280;43675;50.030;21.952;2023-07-13T02:27:16;98372.58;;;19.00;81.73
57847;BME280;43675;50.030;21.952;2023-07-13T02:29:42;98371.04;;;19.03;81.77
57847;BME280;43675;50.030;21.952;2023-07-13T02:32:09;98365.48;;;19.07;81.57
57847;BME280;43675;50.030;21.952;2023-07-13T02:34:36;98362.52;;;19.12;81.60
57847;BME280;43675;50.030;21.952;2023-07-13T02:37:03;98359.13;;;19.17;81.51
57847;BME280;43675;50.030;21.952;2023-07-13T02:39:30;98354.98;;;19.22;81.46
57847;BME280;43675;50.030;21.952;2023-07-13T02:41:56;98356.60;;;19.25;81.35
57847;BME280;43675;50.030;21.952;2023-07-13T02:44:23;98358.28;;;19.28;81.24
57847;BME280;43675;50.030;21.952;2023-07-13T02:46:49;98351.64;;;19.28;81.18
57847;BME280;43675;50.030;21.952;2023-07-13T02:49:16;98351.30;;;19.28;80.97
57847;BME280;43675;50.030;21.952;2023-07-13T02:51:42;98354.25;;;19.29;81.12
57847;BME280;43675;50.030;21.952;2023-07-13T02:54:10;98354.30;;;19.28;81.00
57847;BME280;43675;50.030;21.952;2023-07-13T02:56:36;98366.20;;;19.30;80.89
57847;BME280;43675;50.030;21.952;2023-07-13T02:59:03;98373.83;;;19.32;80.97
57847;BME280;43675;50.030;21.952;2023-07-13T03:01:29;98372.06;;;19.33;80.81
57847;BME280;43675;50.030;21.952;2023-07-13T03:03:56;98375.28;;;19.35;80.70
57847;BME280;43675;50.030;21.952;2023-07-13T03:06:23;98387.66;;;19.38;80.73
57847;BME280;43675;50.030;21.952;2023-07-13T03:08:49;98388.01;;;19.43;80.62
57847;BME280;43675;50.030;21.952;2023-07-13T03:11:18;98381.14;;;19.48;80.52
57847;BME280;43675;50.030;21.952;2023-07-13T03:13:46;98384.16;;;19.53;80.27
57847;BME280;43675;50.030;21.952;2023-07-13T03:16:14;98385.88;;;19.59;80.25
57847;BME280;43675;50.030;21.952;2023-07-13T03:18:41;98382.15;;;19.63;80.13
57847;BME280;43675;50.030;21.952;2023-07-13T03:21:08;98376.66;;;19.69;79.97
57847;BME280;43675;50.030;21.952;2023-07-13T03:23:35;98371.66;;;19.78;79.60
57847;BME280;43675;50.030;21.952;2023-07-13T03:26:11;98365.98;;;19.84;79.32
57847;BME280;43675;50.030;21.952;2023-07-13T03:28:39;98366.85;;;19.91;79.25
57847;BME280;43675;50.030;21.952;2023-07-13T03:31:09;98371.39;;;19.98;78.90
57847;BME280;43675;50.030;21.952;2023-07-13T03:33:36;98375.71;;;20.03;78.85
57847;BME280;43675;50.030;21.952;2023-07-13T03:36:07;98381.00;;;20.09;78.74
57847;BME280;43675;50.030;21.952;2023-07-13T03:38:34;98379.17;;;20.14;78.50
57847;BME280;43675;50.030;21.952;2023-07-13T03:41:00;98383.43;;;20.14;78.63
57847;BME280;43675;50.030;21.952;2023-07-13T03:43:27;98387.55;;;20.16;78.63
57847;BME280;43675;50.030;21.952;2023-07-13T03:45:53;98379.37;;;20.17;78.65
57847;BME280;43675;50.030;21.952;2023-07-13T03:48:20;98382.20;;;20.17;78.63
57847;BME280;43675;50.030;21.952;2023-07-13T03:50:47;98381.66;;;20.17;78.73
57847;BME280;43675;50.030;21.952;2023-07-13T03:53:14;98377.84;;;20.17;78.82
57847;BME280;43675;50.030;21.952;2023-07-13T03:55:40;98373.33;;;20.17;78.92
57847;BME280;43675;50.030;21.952;2023-07-13T04:00:54;98359.21;;;20.16;78.96
57847;BME280;43675;50.030;21.952;2023-07-13T04:03:21;98351.10;;;20.15;79.11
57847;BME280;43675;50.030;21.952;2023-07-13T04:05:48;98336.13;;;20.15;79.20
57847;BME280;43675;50.030;21.952;2023-07-13T04:08:15;98330.57;;;20.14;79.29
57847;BME280;43675;50.030;21.952;2023-07-13T04:10:43;98337.72;;;20.12;79.36
57847;BME280;43675;50.030;21.952;2023-07-13T04:13:09;98335.83;;;20.11;79.62
57847;BME280;43675;50.030;21.952;2023-07-13T04:15:39;98340.26;;;20.09;79.54
57847;BME280;43675;50.030;21.952;2023-07-13T04:18:05;98337.33;;;20.08;79.75
57847;BME280;43675;50.030;21.952;2023-07-13T04:20:32;98331.55;;;20.06;79.79
57847;BME280;43675;50.030;21.952;2023-07-13T04:22:58;98333.14;;;20.06;79.86
57847;BME280;43675;50.030;21.952;2023-07-13T04:25:25;98338.31;;;20.06;79.99
57847;BME280;43675;50.030;21.952;2023-07-13T04:27:52;98341.09;;;20.07;79.86
57847;BME280;43675;50.030;21.952;2023-07-13T04:30:20;98346.63;;;20.09;79.93
57847;BME280;43675;50.030;21.952;2023-07-13T04:32:47;98345.67;;;20.11;80.01
57847;BME280;43675;50.030;21.952;2023-07-13T04:35:13;98353.90;;;20.14;79.81
57847;BME280;43675;50.030;21.952;2023-07-13T04:37:40;98362.88;;;20.14;79.75
57847;BME280;43675;50.030;21.952;2023-07-13T04:40:08;98375.69;;;20.14;79.73
57847;BME280;43675;50.030;21.952;2023-07-13T04:42:35;98385.44;;;20.14;79.51
57847;BME280;43675;50.030;21.952;2023-07-13T04:45:01;98382.51;;;20.14;79.53
57847;BME280;43675;50.030;21.952;2023-07-13T04:47:30;98383.57;;;20.16;79.46
57847;BME280;43675;50.030;21.952;2023-07-13T04:49:57;98380.77;;;20.18;79.35
57847;BME280;43675;50.030;21.952;2023-07-13T04:52:24;98387.44;;;20.23;79.14
57847;BME280;43675;50.030;21.952;2023-07-13T04:54:50;98394.02;;;20.27;79.09
57847;BME280;43675;50.030;21.952;2023-07-13T04:57:17;98395.73;;;20.33;79.12
57847;BME280;43675;50.030;21.952;2023-07-13T04:59:43;98405.88;;;20.40;79.05
57847;BME280;43675;50.030;21.952;2023-07-13T05:02:10;98416.77;;;20.48;79.02
57847;BME280;43675;50.030;21.952;2023-07-13T05:04:36;98427.23;;;20.58;78.85
57847;BME280;43675;50.030;21.952;2023-07-13T05:07:05;98433.36;;;20.67;78.70
57847;BME280;43675;50.030;21.952;2023-07-13T05:09:31;98437.23;;;20.74;78.60
57847;BME280;43675;50.030;21.952;2023-07-13T05:11:58;98439.58;;;20.81;78.26
57847;BME280;43675;50.030;21.952;2023-07-13T05:14:25;98440.11;;;20.87;78.20
57847;BME280;43675;50.030;21.952;2023-07-13T05:16:51;98448.55;;;20.94;77.76
57847;BME280;43675;50.030;21.952;2023-07-13T05:19:18;98449.17;;;20.98;77.39
57847;BME280;43675;50.030;21.952;2023-07-13T05:21:44;98448.17;;;21.02;77.17
57847;BME280;43675;50.030;21.952;2023-07-13T05:24:11;98450.83;;;21.08;76.95
57847;BME280;43675;50.030;21.952;2023-07-13T05:26:37;98447.83;;;21.16;76.68
57847;BME280;43675;50.030;21.952;2023-07-13T05:29:04;98447.05;;;21.29;76.55
57847;BME280;43675;50.030;21.952;2023-07-13T05:31:30;98444.16;;;21.47;76.24
57847;BME280;43675;50.030;21.952;2023-07-13T05:33:57;98446.45;;;21.72;75.95
57847;BME280;43675;50.030;21.952;2023-07-13T05:36:26;98446.95;;;21.98;75.17
57847;BME280;43675;50.030;21.952;2023-07-13T05:38:53;98449.41;;;22.24;74.72
57847;BME280;43675;50.030;21.952;2023-07-13T05:41:19;98443.30;;;22.46;73.77
57847;BME280;43675;50.030;21.952;2023-07-13T05:43:46;98443.67;;;22.65;73.11
57847;BME280;43675;50.030;21.952;2023-07-13T05:46:13;98439.23;;;22.80;72.49
57847;BME280;43675;50.030;21.952;2023-07-13T05:48:39;98430.03;;;22.95;71.99
57847;BME280;43675;50.030;21.952;2023-07-13T05:51:06;98429.37;;;23.14;71.39
57847;BME280;43675;50.030;21.952;2023-07-13T05:53:33;98428.77;;;23.31;70.96
57847;BME280;43675;50.030;21.952;2023-07-13T05:56:00;98434.17;;;23.47;70.48
57847;BME280;43675;50.030;21.952;2023-07-13T05:58:26;98433.39;;;23.63;70.02
57847;BME280;43675;50.030;21.952;2023-07-13T06:01:06;98428.52;;;23.77;69.60
57847;BME280;43675;50.030;21.952;2023-07-13T06:03:35;98430.36;;;23.96;69.45
57847;BME280;43675;50.030;21.952;2023-07-13T06:06:01;98425.77;;;24.15;68.78
57847;BME280;43675;50.030;21.952;2023-07-13T06:08:28;98423.67;;;24.37;68.16
57847;BME280;43675;50.030;21.952;2023-07-13T06:11:01;98423.46;;;24.64;67.58
57847;BME280;43675;50.030;21.952;2023-07-13T06:13:28;98425.35;;;24.98;66.91
57847;BME280;43675;50.030;21.952;2023-07-13T06:15:55;98427.39;;;25.29;66.09
57847;BME280;43675;50.030;21.952;2023-07-13T06:18:21;98432.44;;;25.54;65.22
57847;BME280;43675;50.030;21.952;2023-07-13T06:20:48;98433.61;;;25.75;64.54
57847;BME280;43675;50.030;21.952;2023-07-13T06:23:14;98431.06;;;25.92;63.97
57847;BME280;43675;50.030;21.952;2023-07-13T06:25:41;98424.02;;;26.10;63.26
57847;BME280;43675;50.030;21.952;2023-07-13T06:28:07;98419.11;;;26.27;62.55
57847;BME280;43675;50.030;21.952;2023-07-13T06:30:34;98416.23;;;26.44;61.89
57847;BME280;43675;50.030;21.952;2023-07-13T06:33:00;98414.73;;;26.61;61.28
57847;BME280;43675;50.030;21.952;2023-07-13T06:35:27;98414.84;;;26.74;60.93
57847;BME280;43675;50.030;21.952;2023-07-13T06:37:53;98414.14;;;26.88;60.48
57847;BME280;43675;50.030;21.952;2023-07-13T06:40:20;98415.24;;;27.00;60.20
57847;BME280;43675;50.030;21.952;2023-07-13T06:42:46;98413.73;;;27.11;59.68
57847;BME280;43675;50.030;21.952;2023-07-13T06:45:13;98417.27;;;27.16;59.46
57847;BME280;43675;50.030;21.952;2023-07-13T06:47:39;98411.34;;;27.19;58.90
57847;BME280;43675;50.030;21.952;2023-07-13T06:50:06;98405.88;;;27.21;58.67
57847;BME280;43675;50.030;21.952;2023-07-13T06:52:33;98399.63;;;27.18;58.28
57847;BME280;43675;50.030;21.952;2023-07-13T06:54:59;98397.88;;;27.14;58.32
57847;BME280;43675;50.030;21.952;2023-07-13T06:57:26;98397.41;;;27.08;58.41
57847;BME280;43675;50.030;21.952;2023-07-13T06:59:52;98395.63;;;27.05;58.41
57847;BME280;43675;50.030;21.952;2023-07-13T07:02:19;98391.75;;;27.03;58.47
57847;BME280;43675;50.030;21.952;2023-07-13T07:04:45;98382.88;;;27.02;58.40
57847;BME280;43675;50.030;21.952;2023-07-13T07:07:12;98380.27;;;27.03;58.42
57847;BME280;43675;50.030;21.952;2023-07-13T07:09:38;98376.11;;;27.11;57.90
57847;BME280;43675;50.030;21.952;2023-07-13T07:12:05;98376.13;;;27.20;57.85
57847;BME280;43675;50.030;21.952;2023-07-13T07:14:32;98366.83;;;27.31;57.65
57847;BME280;43675;50.030;21.952;2023-07-13T07:16:58;98365.70;;;27.43;57.78
57847;BME280;43675;50.030;21.952;2023-07-13T07:19:25;98361.58;;;27.47;57.09
57847;BME280;43675;50.030;21.952;2023-07-13T07:21:51;98363.70;;;27.51;56.98
57847;BME280;43675;50.030;21.952;2023-07-13T07:24:18;98360.52;;;27.52;56.99
57847;BME280;43675;50.030;21.952;2023-07-13T07:26:44;98362.83;;;27.52;57.17
57847;BME280;43675;50.030;21.952;2023-07-13T07:29:11;98362.77;;;27.51;56.80
57847;BME280;43675;50.030;21.952;2023-07-13T07:31:37;98368.44;;;27.49;56.99
57847;BME280;43675;50.030;21.952;2023-07-13T07:34:04;98369.30;;;27.47;56.79
57847;BME280;43675;50.030;21.952;2023-07-13T07:36:30;98377.14;;;27.43;56.64
57847;BME280;43675;50.030;21.952;2023-07-13T07:38:57;98383.96;;;27.39;56.93
57847;BME280;43675;50.030;21.952;2023-07-13T07:41:23;98387.29;;;27.36;57.17
57847;BME280;43675;50.030;21.952;2023-07-13T07:43:50;98384.93;;;27.34;57.40
57847;BME280;43675;50.030;21.952;2023-07-13T07:46:16;98387.15;;;27.32;57.52
57847;BME280;43675;50.030;21.952;2023-07-13T07:48:43;98387.85;;;27.30;57.38
57847;BME280;43675;50.030;21.952;2023-07-13T07:51:09;98388.90;;;27.30;56.92
57847;BME280;43675;50.030;21.952;2023-07-13T07:53:36;98393.15;;;27.38;57.04
57847;BME280;43675;50.030;21.952;2023-07-13T07:56:03;98394.20;;;27.53;56.93
57847;BME280;43675;50.030;21.952;2023-07-13T07:58:29;98395.31;;;27.71;56.30
57847;BME280;43675;50.030;21.952;2023-07-13T08:01:05;98389.21;;;27.84;56.29
57847;BME280;43675;50.030;21.952;2023-07-13T08:03:32;98384.48;;;28.10;55.96
57847;BME280;43675;50.030;21.952;2023-07-13T08:05:58;98377.97;;;28.40;55.74
57847;BME280;43675;50.030;21.952;2023-07-13T08:08:25;98375.41;;;28.64;55.30
57847;BME280;43675;50.030;21.952;2023-07-13T08:10:53;98378.34;;;28.82;55.11
57847;BME280;43675;50.030;21.952;2023-07-13T08:13:19;98376.86;;;28.89;54.26
57847;BME280;43675;50.030;21.952;2023-07-13T08:15:46;98377.68;;;28.85;54.32
57847;BME280;43675;50.030;21.952;2023-07-13T08:18:13;98378.95;;;28.77;54.04
57847;BME280;43675;50.030;21.952;2023-07-13T08:20:39;98377.66;;;28.66;54.14
57847;BME280;43675;50.030;21.952;2023-07-13T08:23:07;98372.78;;;28.61;54.04
57847;BME280;43675;50.030;21.952;2023-07-13T08:25:35;98372.27;;;28.67;54.28
57847;BME280;43675;50.030;21.952;2023-07-13T08:28:03;98374.97;;;28.75;53.89
57847;BME280;43675;50.030;21.952;2023-07-13T08:30:30;98378.41;;;28.79;53.34
57847;BME280;43675;50.030;21.952;2023-07-13T08:32:58;98383.79;;;28.77;52.89
57847;BME280;43675;50.030;21.952;2023-07-13T08:35:25;98389.17;;;28.87;52.85
57847;BME280;43675;50.030;21.952;2023-07-13T08:37:52;98383.54;;;29.08;52.25
57847;BME280;43675;50.030;21.952;2023-07-13T08:40:19;98383.46;;;29.36;51.59
57847;BME280;43675;50.030;21.952;2023-07-13T08:42:54;98381.38;;;29.71;51.15
57847;BME280;43675;50.030;21.952;2023-07-13T08:45:30;98378.05;;;30.11;50.50
57847;BME280;43675;50.030;21.952;2023-07-13T08:48:03;98371.71;;;30.47;49.21
57847;BME280;43675;50.030;21.952;2023-07-13T08:50:35;98359.80;;;30.68;48.76
57847;BME280;43675;50.030;21.952;2023-07-13T08:53:05;98354.96;;;30.65;48.93
57847;BME280;43675;50.030;21.952;2023-07-13T08:55:36;98347.08;;;30.54;49.82
57847;BME280;43675;50.030;21.952;2023-07-13T08:58:11;98345.03;;;30.31;49.00
57847;BME280;43675;50.030;21.952;2023-07-13T09:00:54;98339.73;;;30.06;48.99
57847;BME280;43675;50.030;21.952;2023-07-13T09:03:23;98337.00;;;29.91;49.43
57847;BME280;43675;50.030;21.952;2023-07-13T09:05:56;98327.94;;;29.78;49.69
57847;BME280;43675;50.030;21.952;2023-07-13T09:09:06;98320.58;;;29.62;50.31
57847;BME280;43675;50.030;21.952;2023-07-13T09:11:50;98315.97;;;29.46;50.53
57847;BME280;43675;50.030;21.952;2023-07-13T09:14:46;98319.52;;;29.37;50.82
57847;BME280;43675;50.030;21.952;2023-07-13T09:17:21;98318.29;;;29.35;50.51
57847;BME280;43675;50.030;21.952;2023-07-13T09:19:57;98317.02;;;29.37;49.88
57847;BME280;43675;50.030;21.952;2023-07-13T09:22:26;98313.85;;;29.42;50.14
57847;BME280;43675;50.030;21.952;2023-07-13T09:25:04;98317.14;;;29.46;49.81
57847;BME280;43675;50.030;21.952;2023-07-13T09:27:39;98316.71;;;29.57;49.47
57847;BME280;43675;50.030;21.952;2023-07-13T09:32:47;98313.59;;;29.82;48.75
57847;BME280;43675;50.030;21.952;2023-07-13T09:35:28;98308.89;;;29.87;48.02
57847;BME280;43675;50.030;21.952;2023-07-13T09:38:04;98301.09;;;29.88;47.96
57847;BME280;43675;50.030;21.952;2023-07-13T09:43:20;98294.77;;;29.70;48.14
57847;BME280;43675;50.030;21.952;2023-07-13T09:45:47;98292.68;;;29.59;48.82
57847;BME280;43675;50.030;21.952;2023-07-13T09:48:16;98289.17;;;29.53;48.77
57847;BME280;43675;50.030;21.952;2023-07-13T09:50:43;98279.31;;;29.51;48.39
57847;BME280;43675;50.030;21.952;2023-07-13T09:53:18;98282.77;;;29.58;48.68
57847;BME280;43675;50.030;21.952;2023-07-13T09:55:47;98285.33;;;29.77;48.83
57847;BME280;43675;50.030;21.952;2023-07-13T09:58:25;98285.90;;;30.03;48.60
57847;BME280;43675;50.030;21.952;2023-07-13T10:01:01;98289.30;;;30.37;48.26
57847;BME280;43675;50.030;21.952;2023-07-13T10:03:35;98283.17;;;30.73;47.34
57847;BME280;43675;50.030;21.952;2023-07-13T10:06:14;98280.73;;;31.07;46.48
57847;BME280;43675;50.030;21.952;2023-07-13T10:08:44;98277.33;;;31.35;46.14
57847;BME280;43675;50.030;21.952;2023-07-13T10:13:58;98270.23;;;31.71;45.27
57847;BME280;43675;50.030;21.952;2023-07-13T10:16:27;98265.73;;;31.79;45.03
57847;BME280;43675;50.030;21.952;2023-07-13T10:18:59;98266.23;;;31.80;44.59
57847;BME280;43675;50.030;21.952;2023-07-13T10:21:55;98265.46;;;31.81;44.49
57847;BME280;43675;50.030;21.952;2023-07-13T10:24:25;98257.55;;;31.82;44.38
57847;BME280;43675;50.030;21.952;2023-07-13T10:27:01;98259.92;;;31.78;44.54
57847;BME280;43675;50.030;21.952;2023-07-13T10:29:29;98257.29;;;31.74;44.85
57847;BME280;43675;50.030;21.952;2023-07-13T10:32:00;98256.03;;;31.71;45.26
57847;BME280;43675;50.030;21.952;2023-07-13T10:34:27;98254.71;;;31.68;44.93
57847;BME280;43675;50.030;21.952;2023-07-13T10:36:54;98257.49;;;31.65;44.61
57847;BME280;43675;50.030;21.952;2023-07-13T10:39:23;98252.65;;;31.61;44.42
57847;BME280;43675;50.030;21.952;2023-07-13T10:41:58;98253.55;;;31.59;44.64
57847;BME280;43675;50.030;21.952;2023-07-13T10:44:29;98254.38;;;31.53;44.83
57847;BME280;43675;50.030;21.952;2023-07-13T10:47:03;98253.84;;;31.54;44.56
57847;BME280;43675;50.030;21.952;2023-07-13T10:49:33;98258.80;;;31.56;44.15
57847;BME280;43675;50.030;21.952;2023-07-13T10:52:01;98257.12;;;31.58;43.82
57847;BME280;43675;50.030;21.952;2023-07-13T10:54:31;98260.75;;;31.62;43.82
57847;BME280;43675;50.030;21.952;2023-07-13T10:57:17;98257.72;;;31.60;43.98
57847;BME280;43675;50.030;21.952;2023-07-13T11:00:15;98254.30;;;31.57;44.06
57847;BME280;43675;50.030;21.952;2023-07-13T11:02:41;98257.73;;;31.54;44.24
57847;BME280;43675;50.030;21.952;2023-07-13T11:08:03;98250.98;;;31.51;44.01
57847;BME280;43675;50.030;21.952;2023-07-13T11:10:49;98246.36;;;31.47;43.87
57847;BME280;43675;50.030;21.952;2023-07-13T11:13:54;98241.28;;;31.42;43.84
57847;BME280;43675;50.030;21.952;2023-07-13T11:21:29;98244.40;;;31.20;43.84
57847;BME280;43675;50.030;21.952;2023-07-13T11:24:16;98236.02;;;31.10;43.96
57847;BME280;43675;50.030;21.952;2023-07-13T11:26:51;98232.83;;;30.97;44.00
57847;BME280;43675;50.030;21.952;2023-07-13T11:29:25;98231.17;;;30.85;44.44
57847;BME280;43675;50.030;21.952;2023-07-13T11:31:57;98232.16;;;30.74;44.41
57847;BME280;43675;50.030;21.952;2023-07-13T11:34:31;98235.39;;;30.64;44.61
57847;BME280;43675;50.030;21.952;2023-07-13T11:37:00;98237.45;;;30.59;44.74
57847;BME280;43675;50.030;21.952;2023-07-13T11:39:32;98244.38;;;30.51;44.86
57847;BME280;43675;50.030;21.952;2023-07-13T11:42:02;98246.60;;;30.41;45.11
57847;BME280;43675;50.030;21.952;2023-07-13T11:44:31;98251.71;;;30.31;45.30
57847;BME280;43675;50.030;21.952;2023-07-13T11:47:00;98246.56;;;30.13;45.50
57847;BME280;43675;50.030;21.952;2023-07-13T11:49:44;98247.09;;;29.90;46.17
57847;BME280;43675;50.030;21.952;2023-07-13T11:52:12;98242.38;;;29.63;46.81
57847;BME280;43675;50.030;21.952;2023-07-13T11:54:57;98243.19;;;29.35;47.39
57847;BME280;43675;50.030;21.952;2023-07-13T11:57:34;98248.63;;;29.08;47.92
57847;BME280;43675;50.030;21.952;2023-07-13T12:00:12;98248.73;;;28.85;48.79
57847;BME280;43675;50.030;21.952;2023-07-13T12:02:42;98249.18;;;28.64;49.78
57847;BME280;43675;50.030;21.952;2023-07-13T12:05:12;98258.61;;;28.42;50.41
57847;BME280;43675;50.030;21.952;2023-07-13T12:07:40;98268.77;;;28.18;51.26
57847;BME280;43675;50.030;21.952;2023-07-13T12:12:57;98265.48;;;27.35;53.03
57847;BME280;43675;50.030;21.952;2023-07-13T12:15:36;98263.95;;;26.89;53.86
57847;BME280;43675;50.030;21.952;2023-07-13T12:18:21;98259.18;;;26.50;54.55
57847;BME280;43675;50.030;21.952;2023-07-13T12:20:50;98257.10;;;26.18;55.39
57847;BME280;43675;50.030;21.952;2023-07-13T12:25:52;98260.52;;;25.91;56.58
57847;BME280;43675;50.030;21.952;2023-07-13T12:28:44;98260.45;;;25.83;56.97
57847;BME280;43675;50.030;21.952;2023-07-13T12:31:35;98261.43;;;25.75;57.38
57847;BME280;43675;50.030;21.952;2023-07-13T12:34:21;98265.14;;;25.69;57.80
57847;BME280;43675;50.030;21.952;2023-07-13T12:36:53;98259.89;;;25.57;57.87
57847;BME280;43675;50.030;21.952;2023-07-13T12:42:13;98255.05;;;25.46;58.58
57847;BME280;43675;50.030;21.952;2023-07-13T12:44:45;98245.70;;;25.48;58.79
57847;BME280;43675;50.030;21.952;2023-07-13T12:47:14;98240.38;;;25.56;59.31
57847;BME280;43675;50.030;21.952;2023-07-13T12:49:43;98239.95;;;25.67;59.50
57847;BME280;43675;50.030;21.952;2023-07-13T12:52:21;98243.48;;;25.86;59.99
57847;BME280;43675;50.030;21.952;2023-07-13T12:54:59;98251.21;;;26.12;59.90
57847;BME280;43675;50.030;21.952;2023-07-13T12:57:29;98257.51;;;26.33;59.60
57847;BME280;43675;50.030;21.952;2023-07-13T12:59:56;98259.55;;;26.49;59.26
57847;BME280;43675;50.030;21.952;2023-07-13T13:02:30;98262.99;;;26.63;59.33
57847;BME280;43675;50.030;21.952;2023-07-13T13:04:58;98268.50;;;26.73;59.32
57847;BME280;43675;50.030;21.952;2023-07-13T13:07:26;98275.36;;;26.75;59.56
57847;BME280;43675;50.030;21.952;2023-07-13T13:09:52;98274.62;;;26.63;59.61
57847;BME280;43675;50.030;21.952;2023-07-13T13:12:20;98272.84;;;26.40;60.19
57847;BME280;43675;50.030;21.952;2023-07-13T13:14:46;98273.48;;;26.05;60.33
57847;BME280;43675;50.030;21.952;2023-07-13T13:17:19;98274.35;;;25.75;60.72
57847;BME280;43675;50.030;21.952;2023-07-13T13:19:47;98271.45;;;25.40;61.09
57847;BME280;43675;50.030;21.952;2023-07-13T13:22:13;98272.44;;;25.08;61.51
57847;BME280;43675;50.030;21.952;2023-07-13T13:24:40;98281.59;;;24.83;61.93
57847;BME280;43675;50.030;21.952;2023-07-13T13:27:15;98284.44;;;24.54;62.92
57847;BME280;43675;50.030;21.952;2023-07-13T13:29:45;98289.09;;;24.23;63.81
57847;BME280;43675;50.030;21.952;2023-07-13T13:32:14;98298.77;;;23.93;64.29